sensor_id;sensor_type;location;lat;lon;timestamp;P1;durP1;ratioP1;P2;durP2;ratioP2
32932;SDS011;19444;50.518;10.870;2023-03-20T00:01:27;4.20;;;3.05;;
32932;SDS011;19444;50.518;10.870;2023-03-20T00:04:26;5.32;;;2.65;;
32932;SDS011;19444;50.518;10.870;2023-03-20T00:07:24;4.88;;;2.10;;
32932;SDS011;19444;50.518;10.870;2023-03-20T00:10:24;3.00;;;2.15;;
32932;SDS011;19444;50.518;10.870;2023-03-20T00:13:32;6.20;;;2.35;;
32932;SDS011;19444;50.518;10.870;2023-03-20T00:16:29;3.78;;;1.80;;
32932;SDS011;19444;50.518;10.870;2023-03-20T00:19:32;4.32;;;3.00;;
32932;SDS011;19444;50.518;10.870;2023-03-20T00:22:29;6.38;;;3.90;;
32932;SDS011;19444;50.518;10.870;2023-03-20T00:25:27;7.90;;;5.05;;
32932;SDS011;19444;50.518;10.870;2023-03-20T00:28:58;8.63;;;4.43;;
32932;SDS011;19444;50.518;10.870;2023-03-20T00:31:48;8.68;;;4.95;;
32932;SDS011;19444;50.518;10.870;2023-03-20T00:34:45;6.90;;;4.22;;
32932;SDS011;19444;50.518;10.870;2023-03-20T00:37:42;6.57;;;3.92;;
32932;SDS011;19444;50.518;10.870;2023-03-20T00:40:38;5.90;;;4.05;;
32932;SDS011;19444;50.518;10.870;2023-03-20T00:43:35;6.53;;;3.90;;
32932;SDS011;19444;50.518;10.870;2023-03-20T00:46:34;7.40;;;3.92;;
32932;SDS011;19444;50.518;10.870;2023-03-20T00:49:34;7.95;;;3.80;;
32932;SDS011;19444;50.518;10.870;2023-03-20T00:52:31;8.38;;;4.07;;
32932;SDS011;19444;50.518;10.870;2023-03-20T00:55:28;5.07;;;3.58;;
32932;SDS011;19444;50.518;10.870;2023-03-20T00:58:25;5.03;;;3.38;;
32932;SDS011;19444;50.518;10.870;2023-03-20T01:01:22;5.80;;;3.53;;
32932;SDS011;19444;50.518;10.870;2023-03-20T01:04:19;7.32;;;3.53;;
32932;SDS011;19444;50.518;10.870;2023-03-20T01:07:16;5.20;;;3.10;;
32932;SDS011;19444;50.518;10.870;2023-03-20T01:10:14;6.13;;;3.20;;
32932;SDS011;19444;50.518;10.870;2023-03-20T01:13:14;4.65;;;3.00;;
32932;SDS011;19444;50.518;10.870;2023-03-20T01:16:24;5.35;;;2.75;;
32932;SDS011;19444;50.518;10.870;2023-03-20T01:19:22;4.07;;;3.05;;
32932;SDS011;19444;50.518;10.870;2023-03-20T01:22:19;3.40;;;2.75;;
32932;SDS011;19444;50.518;10.870;2023-03-20T01:25:16;4.22;;;2.55;;
32932;SDS011;19444;50.518;10.870;2023-03-20T01:28:17;5.57;;;2.90;;
32932;SDS011;19444;50.518;10.870;2023-03-20T01:31:18;4.43;;;2.90;;
32932;SDS011;19444;50.518;10.870;2023-03-20T01:34:15;7.40;;;2.92;;
32932;SDS011;19444;50.518;10.870;2023-03-20T01:37:16;4.95;;;2.83;;
32932;SDS011;19444;50.518;10.870;2023-03-20T01:43:27;5.15;;;2.70;;
32932;SDS011;19444;50.518;10.870;2023-03-20T01:46:28;3.45;;;2.40;;
32932;SDS011;19444;50.518;10.870;2023-03-20T01:52:23;3.72;;;2.15;;
32932;SDS011;19444;50.518;10.870;2023-03-20T01:55:21;3.47;;;1.85;;
32932;SDS011;19444;50.518;10.870;2023-03-20T01:58:20;2.83;;;1.90;;
32932;SDS011;19444;50.518;10.870;2023-03-20T02:01:23;4.90;;;2.10;;
32932;SDS011;19444;50.518;10.870;2023-03-20T02:04:24;3.65;;;2.00;;
32932;SDS011;19444;50.518;10.870;2023-03-20T02:07:28;3.90;;;2.20;;
32932;SDS011;19444;50.518;10.870;2023-03-20T02:10:27;3.97;;;1.92;;
32932;SDS011;19444;50.518;10.870;2023-03-20T02:13:27;4.60;;;2.10;;
32932;SDS011;19444;50.518;10.870;2023-03-20T02:16:26;2.97;;;1.80;;
32932;SDS011;19444;50.518;10.870;2023-03-20T02:26:21;2.53;;;2.00;;
32932;SDS011;19444;50.518;10.870;2023-03-20T02:29:55;3.03;;;1.80;;
32932;SDS011;19444;50.518;10.870;2023-03-20T02:33:40;3.45;;;1.70;;
32932;SDS011;19444;50.518;10.870;2023-03-20T02:43:40;2.88;;;2.15;;
32932;SDS011;19444;50.518;10.870;2023-03-20T02:47:11;3.85;;;2.33;;
32932;SDS011;19444;50.518;10.870;2023-03-20T02:54:09;3.28;;;2.20;;
32932;SDS011;19444;50.518;10.870;2023-03-20T02:57:28;4.25;;;2.22;;
32932;SDS011;19444;50.518;10.870;2023-03-20T03:00:50;4.05;;;2.45;;
32932;SDS011;19444;50.518;10.870;2023-03-20T03:04:07;4.15;;;2.60;;
32932;SDS011;19444;50.518;10.870;2023-03-20T03:07:13;3.80;;;3.05;;
32932;SDS011;19444;50.518;10.870;2023-03-20T03:10:18;3.80;;;2.50;;
32932;SDS011;19444;50.518;10.870;2023-03-20T03:13:26;3.15;;;2.40;;
32932;SDS011;19444;50.518;10.870;2023-03-20T03:16:34;4.00;;;2.75;;
32932;SDS011;19444;50.518;10.870;2023-03-20T03:19:33;3.72;;;2.42;;
32932;SDS011;19444;50.518;10.870;2023-03-20T03:22:33;5.28;;;2.42;;
32932;SDS011;19444;50.518;10.870;2023-03-20T03:25:33;5.85;;;2.70;;
32932;SDS011;19444;50.518;10.870;2023-03-20T03:28:35;3.97;;;2.33;;
32932;SDS011;19444;50.518;10.870;2023-03-20T03:31:51;4.72;;;2.42;;
32932;SDS011;19444;50.518;10.870;2023-03-20T03:34:50;4.32;;;3.33;;
32932;SDS011;19444;50.518;10.870;2023-03-20T03:37:49;3.28;;;2.30;;
32932;SDS011;19444;50.518;10.870;2023-03-20T03:41:17;3.35;;;2.08;;
32932;SDS011;19444;50.518;10.870;2023-03-20T03:44:34;3.35;;;2.20;;
32932;SDS011;19444;50.518;10.870;2023-03-20T03:47:51;4.03;;;2.42;;
32932;SDS011;19444;50.518;10.870;2023-03-20T03:50:58;2.70;;;2.28;;
32932;SDS011;19444;50.518;10.870;2023-03-20T03:54:09;3.33;;;2.28;;
32932;SDS011;19444;50.518;10.870;2023-03-20T03:57:15;4.40;;;2.78;;
32932;SDS011;19444;50.518;10.870;2023-03-20T04:00:17;3.05;;;2.45;;
32932;SDS011;19444;50.518;10.870;2023-03-20T04:03:19;3.13;;;2.67;;
32932;SDS011;19444;50.518;10.870;2023-03-20T04:06:20;3.28;;;2.22;;
32932;SDS011;19444;50.518;10.870;2023-03-20T04:09:17;4.22;;;2.47;;
32932;SDS011;19444;50.518;10.870;2023-03-20T04:12:33;3.78;;;2.35;;
32932;SDS011;19444;50.518;10.870;2023-03-20T04:15:38;3.70;;;2.35;;
32932;SDS011;19444;50.518;10.870;2023-03-20T04:18:35;3.08;;;2.00;;
32932;SDS011;19444;50.518;10.870;2023-03-20T04:21:32;4.43;;;3.08;;
32932;SDS011;19444;50.518;10.870;2023-03-20T04:24:29;4.00;;;2.30;;
32932;SDS011;19444;50.518;10.870;2023-03-20T04:27:26;3.45;;;2.35;;
32932;SDS011;19444;50.518;10.870;2023-03-20T04:30:22;2.65;;;2.15;;
32932;SDS011;19444;50.518;10.870;2023-03-20T04:33:19;4.35;;;2.38;;
32932;SDS011;19444;50.518;10.870;2023-03-20T04:36:16;4.32;;;1.98;;
32932;SDS011;19444;50.518;10.870;2023-03-20T04:39:13;3.33;;;2.17;;
32932;SDS011;19444;50.518;10.870;2023-03-20T04:42:11;4.55;;;2.40;;
32932;SDS011;19444;50.518;10.870;2023-03-20T04:45:08;2.90;;;2.00;;
32932;SDS011;19444;50.518;10.870;2023-03-20T04:48:05;3.30;;;2.35;;
32932;SDS011;19444;50.518;10.870;2023-03-20T04:51:03;4.80;;;2.20;;
32932;SDS011;19444;50.518;10.870;2023-03-20T04:54:00;3.28;;;2.10;;
32932;SDS011;19444;50.518;10.870;2023-03-20T04:56:57;3.15;;;1.70;;
32932;SDS011;19444;50.518;10.870;2023-03-20T04:59:54;2.97;;;1.65;;
32932;SDS011;19444;50.518;10.870;2023-03-20T05:02:51;4.40;;;1.90;;
32932;SDS011;19444;50.518;10.870;2023-03-20T05:05:48;4.38;;;2.60;;
32932;SDS011;19444;50.518;10.870;2023-03-20T05:08:44;4.20;;;3.80;;
32932;SDS011;19444;50.518;10.870;2023-03-20T05:11:42;3.97;;;2.78;;
32932;SDS011;19444;50.518;10.870;2023-03-20T05:14:39;5.15;;;3.38;;
32932;SDS011;19444;50.518;10.870;2023-03-20T05:17:36;6.28;;;4.22;;
32932;SDS011;19444;50.518;10.870;2023-03-20T05:20:33;12.43;;;7.35;;
32932;SDS011;19444;50.518;10.870;2023-03-20T05:23:31;7.00;;;4.38;;
32932;SDS011;19444;50.518;10.870;2023-03-20T05:26:28;6.63;;;3.80;;
32932;SDS011;19444;50.518;10.870;2023-03-20T05:29:25;7.82;;;5.88;;
32932;SDS011;19444;50.518;10.870;2023-03-20T05:32:22;11.45;;;7.78;;
32932;SDS011;19444;50.518;10.870;2023-03-20T05:35:19;10.88;;;6.75;;
32932;SDS011;19444;50.518;10.870;2023-03-20T05:38:16;6.63;;;5.07;;
32932;SDS011;19444;50.518;10.870;2023-03-20T05:41:12;7.45;;;5.32;;
32932;SDS011;19444;50.518;10.870;2023-03-20T05:44:09;10.07;;;6.28;;
32932;SDS011;19444;50.518;10.870;2023-03-20T05:47:06;7.05;;;4.93;;
32932;SDS011;19444;50.518;10.870;2023-03-20T05:50:03;7.38;;;5.03;;
32932;SDS011;19444;50.518;10.870;2023-03-20T05:53:00;7.63;;;5.20;;
32932;SDS011;19444;50.518;10.870;2023-03-20T05:55:57;7.43;;;4.70;;
32932;SDS011;19444;50.518;10.870;2023-03-20T05:58:54;11.15;;;7.13;;
32932;SDS011;19444;50.518;10.870;2023-03-20T06:01:51;12.52;;;8.32;;
32932;SDS011;19444;50.518;10.870;2023-03-20T06:04:48;11.38;;;6.75;;
32932;SDS011;19444;50.518;10.870;2023-03-20T06:07:45;10.13;;;6.30;;
32932;SDS011;19444;50.518;10.870;2023-03-20T06:10:42;9.93;;;6.50;;
32932;SDS011;19444;50.518;10.870;2023-03-20T06:13:38;9.95;;;6.18;;
32932;SDS011;19444;50.518;10.870;2023-03-20T06:16:35;8.45;;;6.10;;
32932;SDS011;19444;50.518;10.870;2023-03-20T06:19:32;10.05;;;6.60;;
32932;SDS011;19444;50.518;10.870;2023-03-20T06:22:29;11.30;;;6.70;;
32932;SDS011;19444;50.518;10.870;2023-03-20T06:25:26;15.50;;;8.75;;
32932;SDS011;19444;50.518;10.870;2023-03-20T06:28:23;12.60;;;7.65;;
32932;SDS011;19444;50.518;10.870;2023-03-20T06:31:20;10.57;;;7.07;;
32932;SDS011;19444;50.518;10.870;2023-03-20T06:34:17;11.32;;;6.63;;
32932;SDS011;19444;50.518;10.870;2023-03-20T06:37:14;14.05;;;8.18;;
32932;SDS011;19444;50.518;10.870;2023-03-20T06:40:11;11.85;;;7.43;;
32932;SDS011;19444;50.518;10.870;2023-03-20T06:43:07;14.57;;;8.23;;
32932;SDS011;19444;50.518;10.870;2023-03-20T06:46:07;16.70;;;9.57;;
32932;SDS011;19444;50.518;10.870;2023-03-20T06:49:04;11.95;;;7.43;;
32932;SDS011;19444;50.518;10.870;2023-03-20T06:52:01;14.05;;;8.30;;
32932;SDS011;19444;50.518;10.870;2023-03-20T06:54:59;15.85;;;9.18;;
32932;SDS011;19444;50.518;10.870;2023-03-20T06:57:56;14.82;;;10.77;;
32932;SDS011;19444;50.518;10.870;2023-03-20T07:00:53;17.13;;;12.32;;
32932;SDS011;19444;50.518;10.870;2023-03-20T07:03:50;34.28;;;18.85;;
32932;SDS011;19444;50.518;10.870;2023-03-20T07:06:46;20.65;;;13.00;;
32932;SDS011;19444;50.518;10.870;2023-03-20T07:09:43;22.30;;;14.63;;
32932;SDS011;19444;50.518;10.870;2023-03-20T07:12:40;20.08;;;12.50;;
32932;SDS011;19444;50.518;10.870;2023-03-20T07:15:37;25.45;;;14.80;;
32932;SDS011;19444;50.518;10.870;2023-03-20T07:18:40;27.02;;;15.02;;
32932;SDS011;19444;50.518;10.870;2023-03-20T07:21:38;32.45;;;18.70;;
32932;SDS011;19444;50.518;10.870;2023-03-20T07:24:35;25.60;;;15.95;;
32932;SDS011;19444;50.518;10.870;2023-03-20T07:27:32;25.85;;;15.68;;
32932;SDS011;19444;50.518;10.870;2023-03-20T07:30:29;19.10;;;12.45;;
32932;SDS011;19444;50.518;10.870;2023-03-20T07:33:27;16.33;;;10.27;;
32932;SDS011;19444;50.518;10.870;2023-03-20T07:36:24;23.75;;;14.70;;
32932;SDS011;19444;50.518;10.870;2023-03-20T07:39:20;22.40;;;13.15;;
32932;SDS011;19444;50.518;10.870;2023-03-20T07:42:18;20.85;;;12.60;;
32932;SDS011;19444;50.518;10.870;2023-03-20T07:45:15;28.40;;;17.85;;
32932;SDS011;19444;50.518;10.870;2023-03-20T07:48:13;32.88;;;21.33;;
32932;SDS011;19444;50.518;10.870;2023-03-20T07:51:10;32.33;;;19.50;;
32932;SDS011;19444;50.518;10.870;2023-03-20T07:54:07;26.40;;;15.95;;
32932;SDS011;19444;50.518;10.870;2023-03-20T07:57:03;37.20;;;21.00;;
32932;SDS011;19444;50.518;10.870;2023-03-20T08:00:00;21.50;;;13.80;;
32932;SDS011;19444;50.518;10.870;2023-03-20T08:02:57;21.70;;;13.15;;
32932;SDS011;19444;50.518;10.870;2023-03-20T08:05:55;20.20;;;13.55;;
32932;SDS011;19444;50.518;10.870;2023-03-20T08:08:51;24.88;;;17.17;;
32932;SDS011;19444;50.518;10.870;2023-03-20T08:11:48;24.52;;;15.57;;
32932;SDS011;19444;50.518;10.870;2023-03-20T08:14:46;18.42;;;12.00;;
32932;SDS011;19444;50.518;10.870;2023-03-20T08:17:43;20.67;;;13.98;;
32932;SDS011;19444;50.518;10.870;2023-03-20T08:20:41;23.00;;;13.98;;
32932;SDS011;19444;50.518;10.870;2023-03-20T08:23:38;20.02;;;12.65;;
32932;SDS011;19444;50.518;10.870;2023-03-20T08:26:35;24.92;;;15.80;;
32932;SDS011;19444;50.518;10.870;2023-03-20T08:29:32;26.02;;;16.25;;
32932;SDS011;19444;50.518;10.870;2023-03-20T08:32:29;29.90;;;19.27;;
32932;SDS011;19444;50.518;10.870;2023-03-20T08:35:26;28.58;;;17.02;;
32932;SDS011;19444;50.518;10.870;2023-03-20T08:38:28;25.05;;;16.52;;
32932;SDS011;19444;50.518;10.870;2023-03-20T08:41:25;18.42;;;12.10;;
32932;SDS011;19444;50.518;10.870;2023-03-20T08:44:22;17.85;;;11.55;;
32932;SDS011;19444;50.518;10.870;2023-03-20T08:47:19;28.40;;;17.55;;
32932;SDS011;19444;50.518;10.870;2023-03-20T08:50:16;27.25;;;17.63;;
32932;SDS011;19444;50.518;10.870;2023-03-20T08:53:13;23.17;;;14.80;;
32932;SDS011;19444;50.518;10.870;2023-03-20T08:56:10;31.27;;;19.75;;
32932;SDS011;19444;50.518;10.870;2023-03-20T08:59:07;19.95;;;14.30;;
32932;SDS011;19444;50.518;10.870;2023-03-20T09:02:05;28.13;;;19.85;;
32932;SDS011;19444;50.518;10.870;2023-03-20T09:05:02;26.63;;;16.88;;
32932;SDS011;19444;50.518;10.870;2023-03-20T09:07:59;25.67;;;16.67;;
32932;SDS011;19444;50.518;10.870;2023-03-20T09:10:56;24.67;;;15.82;;
32932;SDS011;19444;50.518;10.870;2023-03-20T09:13:53;25.60;;;18.15;;
32932;SDS011;19444;50.518;10.870;2023-03-20T09:16:50;25.92;;;17.50;;
32932;SDS011;19444;50.518;10.870;2023-03-20T09:19:47;22.85;;;14.65;;
32932;SDS011;19444;50.518;10.870;2023-03-20T09:22:44;21.88;;;13.98;;
32932;SDS011;19444;50.518;10.870;2023-03-20T09:25:41;27.08;;;15.18;;
32932;SDS011;19444;50.518;10.870;2023-03-20T09:28:38;25.85;;;16.52;;
32932;SDS011;19444;50.518;10.870;2023-03-20T09:31:35;21.33;;;14.18;;
32932;SDS011;19444;50.518;10.870;2023-03-20T09:34:32;37.90;;;20.70;;
32932;SDS011;19444;50.518;10.870;2023-03-20T09:37:29;36.05;;;21.70;;
32932;SDS011;19444;50.518;10.870;2023-03-20T09:40:26;40.70;;;22.15;;
32932;SDS011;19444;50.518;10.870;2023-03-20T09:50:31;22.23;;;14.63;;
32932;SDS011;19444;50.518;10.870;2023-03-20T09:53:58;48.05;;;28.25;;
32932;SDS011;19444;50.518;10.870;2023-03-20T09:57:19;29.35;;;18.35;;
32932;SDS011;19444;50.518;10.870;2023-03-20T10:00:31;38.97;;;23.85;;
32932;SDS011;19444;50.518;10.870;2023-03-20T10:03:31;30.60;;;20.70;;
32932;SDS011;19444;50.518;10.870;2023-03-20T10:06:39;41.53;;;25.52;;
32932;SDS011;19444;50.518;10.870;2023-03-20T10:09:36;28.13;;;17.85;;
32932;SDS011;19444;50.518;10.870;2023-03-20T10:12:45;31.52;;;19.25;;
32932;SDS011;19444;50.518;10.870;2023-03-20T10:19:25;27.27;;;17.80;;
32932;SDS011;19444;50.518;10.870;2023-03-20T10:22:33;29.15;;;17.63;;
32932;SDS011;19444;50.518;10.870;2023-03-20T10:25:38;26.42;;;15.95;;
32932;SDS011;19444;50.518;10.870;2023-03-20T10:28:57;24.17;;;15.90;;
32932;SDS011;19444;50.518;10.870;2023-03-20T10:35:38;28.02;;;16.02;;
32932;SDS011;19444;50.518;10.870;2023-03-20T10:38:50;27.27;;;16.40;;
32932;SDS011;19444;50.518;10.870;2023-03-20T10:42:01;25.50;;;13.90;;
32932;SDS011;19444;50.518;10.870;2023-03-20T10:45:07;20.38;;;13.52;;
32932;SDS011;19444;50.518;10.870;2023-03-20T10:51:29;21.13;;;13.88;;
32932;SDS011;19444;50.518;10.870;2023-03-20T10:54:52;22.10;;;14.02;;
32932;SDS011;19444;50.518;10.870;2023-03-20T10:58:03;17.58;;;12.82;;
32932;SDS011;19444;50.518;10.870;2023-03-20T11:01:17;21.75;;;11.82;;
32932;SDS011;19444;50.518;10.870;2023-03-20T11:04:16;20.88;;;13.13;;
32932;SDS011;19444;50.518;10.870;2023-03-20T11:07:16;17.55;;;11.77;;
32932;SDS011;19444;50.518;10.870;2023-03-20T11:10:34;17.77;;;10.73;;
32932;SDS011;19444;50.518;10.870;2023-03-20T11:16:37;19.08;;;10.27;;
32932;SDS011;19444;50.518;10.870;2023-03-20T11:19:36;23.05;;;13.35;;
32932;SDS011;19444;50.518;10.870;2023-03-20T11:25:35;23.23;;;13.63;;
32932;SDS011;19444;50.518;10.870;2023-03-20T11:28:51;17.90;;;11.57;;
32932;SDS011;19444;50.518;10.870;2023-03-20T11:31:53;21.13;;;12.98;;
32932;SDS011;19444;50.518;10.870;2023-03-20T11:34:50;21.25;;;12.73;;
32932;SDS011;19444;50.518;10.870;2023-03-20T11:37:48;18.70;;;10.95;;
32932;SDS011;19444;50.518;10.870;2023-03-20T11:40:48;19.40;;;12.02;;
32932;SDS011;19444;50.518;10.870;2023-03-20T11:43:47;17.67;;;11.25;;
32932;SDS011;19444;50.518;10.870;2023-03-20T11:46:44;18.85;;;10.95;;
32932;SDS011;19444;50.518;10.870;2023-03-20T11:49:55;20.48;;;12.18;;
32932;SDS011;19444;50.518;10.870;2023-03-20T11:52:54;20.85;;;11.70;;
32932;SDS011;19444;50.518;10.870;2023-03-20T11:56:02;22.17;;;12.60;;
32932;SDS011;19444;50.518;10.870;2023-03-20T11:59:05;19.95;;;11.85;;
32932;SDS011;19444;50.518;10.870;2023-03-20T12:05:32;19.77;;;11.13;;
32932;SDS011;19444;50.518;10.870;2023-03-20T12:08:32;20.80;;;10.77;;
32932;SDS011;19444;50.518;10.870;2023-03-20T12:11:39;23.65;;;12.77;;
32932;SDS011;19444;50.518;10.870;2023-03-20T12:18:21;19.38;;;10.52;;
32932;SDS011;19444;50.518;10.870;2023-03-20T12:21:40;27.15;;;10.88;;
32932;SDS011;19444;50.518;10.870;2023-03-20T12:25:07;19.77;;;11.18;;
32932;SDS011;19444;50.518;10.870;2023-03-20T12:35:30;17.42;;;9.70;;
32932;SDS011;19444;50.518;10.870;2023-03-20T12:38:31;16.65;;;9.65;;
32932;SDS011;19444;50.518;10.870;2023-03-20T12:45:20;17.10;;;9.43;;
32932;SDS011;19444;50.518;10.870;2023-03-20T12:57:35;13.32;;;8.27;;
32932;SDS011;19444;50.518;10.870;2023-03-20T13:07:17;16.90;;;8.45;;
32932;SDS011;19444;50.518;10.870;2023-03-20T13:13:21;18.40;;;9.15;;
32932;SDS011;19444;50.518;10.870;2023-03-20T13:16:54;13.50;;;6.63;;
32932;SDS011;19444;50.518;10.870;2023-03-20T13:23:43;17.55;;;9.63;;
32932;SDS011;19444;50.518;10.870;2023-03-20T13:27:19;19.90;;;9.77;;
32932;SDS011;19444;50.518;10.870;2023-03-20T13:30:42;17.90;;;9.50;;
32932;SDS011;19444;50.518;10.870;2023-03-20T13:37:33;17.80;;;9.93;;
32932;SDS011;19444;50.518;10.870;2023-03-20T13:40:39;15.88;;;8.57;;
32932;SDS011;19444;50.518;10.870;2023-03-20T13:46:57;15.63;;;8.07;;
32932;SDS011;19444;50.518;10.870;2023-03-20T13:50:04;15.02;;;7.32;;
32932;SDS011;19444;50.518;10.870;2023-03-20T13:53:45;13.45;;;7.75;;
32932;SDS011;19444;50.518;10.870;2023-03-20T13:57:16;15.02;;;7.00;;
32932;SDS011;19444;50.518;10.870;2023-03-20T14:00:41;12.43;;;6.38;;
32932;SDS011;19444;50.518;10.870;2023-03-20T14:03:55;11.70;;;6.88;;
32932;SDS011;19444;50.518;10.870;2023-03-20T14:06:55;11.85;;;5.70;;
32932;SDS011;19444;50.518;10.870;2023-03-20T14:09:54;11.60;;;5.97;;
32932;SDS011;19444;50.518;10.870;2023-03-20T14:12:53;10.23;;;5.72;;
32932;SDS011;19444;50.518;10.870;2023-03-20T14:15:55;7.57;;;4.70;;
32932;SDS011;19444;50.518;10.870;2023-03-20T14:19:16;11.82;;;6.13;;
32932;SDS011;19444;50.518;10.870;2023-03-20T14:22:21;14.98;;;8.05;;
32932;SDS011;19444;50.518;10.870;2023-03-20T14:25:24;12.73;;;7.25;;
32932;SDS011;19444;50.518;10.870;2023-03-20T14:28:26;11.75;;;7.38;;
32932;SDS011;19444;50.518;10.870;2023-03-20T14:31:32;14.20;;;7.32;;
32932;SDS011;19444;50.518;10.870;2023-03-20T14:34:43;12.90;;;7.20;;
32932;SDS011;19444;50.518;10.870;2023-03-20T14:37:58;11.45;;;7.07;;
32932;SDS011;19444;50.518;10.870;2023-03-20T14:41:25;13.10;;;6.32;;
32932;SDS011;19444;50.518;10.870;2023-03-20T14:44:56;8.18;;;5.13;;
32932;SDS011;19444;50.518;10.870;2023-03-20T14:48:37;11.13;;;5.55;;
32932;SDS011;19444;50.518;10.870;2023-03-20T14:51:43;10.55;;;5.45;;
32932;SDS011;19444;50.518;10.870;2023-03-20T14:54:44;8.00;;;4.68;;
32932;SDS011;19444;50.518;10.870;2023-03-20T14:57:50;8.40;;;4.07;;
32932;SDS011;19444;50.518;10.870;2023-03-20T15:00:52;8.80;;;4.63;;
32932;SDS011;19444;50.518;10.870;2023-03-20T15:03:50;7.10;;;4.40;;
32932;SDS011;19444;50.518;10.870;2023-03-20T15:07:04;7.35;;;4.22;;
32932;SDS011;19444;50.518;10.870;2023-03-20T15:10:13;7.63;;;4.40;;
32932;SDS011;19444;50.518;10.870;2023-03-20T15:13:12;9.63;;;4.68;;
32932;SDS011;19444;50.518;10.870;2023-03-20T15:16:12;6.63;;;4.20;;
32932;SDS011;19444;50.518;10.870;2023-03-20T15:19:16;8.57;;;4.28;;
32932;SDS011;19444;50.518;10.870;2023-03-20T15:22:16;7.13;;;3.80;;
32932;SDS011;19444;50.518;10.870;2023-03-20T15:25:16;6.65;;;4.20;;
32932;SDS011;19444;50.518;10.870;2023-03-20T15:28:24;5.63;;;3.72;;
32932;SDS011;19444;50.518;10.870;2023-03-20T15:31:23;6.30;;;3.72;;
32932;SDS011;19444;50.518;10.870;2023-03-20T15:34:34;6.28;;;3.50;;
32932;SDS011;19444;50.518;10.870;2023-03-20T15:37:31;5.53;;;3.63;;
32932;SDS011;19444;50.518;10.870;2023-03-20T15:40:30;7.00;;;3.47;;
32932;SDS011;19444;50.518;10.870;2023-03-20T15:43:45;6.00;;;3.40;;
32932;SDS011;19444;50.518;10.870;2023-03-20T15:50:15;6.47;;;3.95;;
32932;SDS011;19444;50.518;10.870;2023-03-20T15:53:17;7.60;;;4.45;;
32932;SDS011;19444;50.518;10.870;2023-03-20T15:56:25;9.10;;;3.70;;
32932;SDS011;19444;50.518;10.870;2023-03-20T15:59:24;6.65;;;4.07;;
32932;SDS011;19444;50.518;10.870;2023-03-20T16:02:24;6.70;;;4.40;;
32932;SDS011;19444;50.518;10.870;2023-03-20T16:05:24;5.63;;;3.55;;
32932;SDS011;19444;50.518;10.870;2023-03-20T16:08:25;5.93;;;3.65;;
32932;SDS011;19444;50.518;10.870;2023-03-20T16:11:34;7.35;;;3.75;;
32932;SDS011;19444;50.518;10.870;2023-03-20T16:14:39;6.82;;;3.72;;
32932;SDS011;19444;50.518;10.870;2023-03-20T16:17:36;8.20;;;5.05;;
32932;SDS011;19444;50.518;10.870;2023-03-20T16:20:35;8.05;;;4.68;;
32932;SDS011;19444;50.518;10.870;2023-03-20T16:23:38;4.72;;;3.17;;
32932;SDS011;19444;50.518;10.870;2023-03-20T16:26:41;6.22;;;3.63;;
32932;SDS011;19444;50.518;10.870;2023-03-20T16:29:43;5.82;;;3.40;;
32932;SDS011;19444;50.518;10.870;2023-03-20T16:32:40;6.38;;;3.78;;
32932;SDS011;19444;50.518;10.870;2023-03-20T16:35:43;4.70;;;3.05;;
32932;SDS011;19444;50.518;10.870;2023-03-20T16:38:53;4.93;;;3.17;;
32932;SDS011;19444;50.518;10.870;2023-03-20T16:42:23;5.97;;;3.90;;
32932;SDS011;19444;50.518;10.870;2023-03-20T16:45:28;5.50;;;3.58;;
32932;SDS011;19444;50.518;10.870;2023-03-20T16:48:30;7.18;;;4.40;;
32932;SDS011;19444;50.518;10.870;2023-03-20T16:54:34;8.52;;;4.10;;
32932;SDS011;19444;50.518;10.870;2023-03-20T16:57:34;5.55;;;3.22;;
32932;SDS011;19444;50.518;10.870;2023-03-20T17:00:41;7.45;;;4.03;;
32932;SDS011;19444;50.518;10.870;2023-03-20T17:03:54;8.05;;;3.40;;
32932;SDS011;19444;50.518;10.870;2023-03-20T17:07:28;7.05;;;3.65;;
32932;SDS011;19444;50.518;10.870;2023-03-20T17:10:27;6.25;;;3.72;;
32932;SDS011;19444;50.518;10.870;2023-03-20T17:13:24;7.20;;;4.30;;
32932;SDS011;19444;50.518;10.870;2023-03-20T17:16:21;9.93;;;6.53;;
32932;SDS011;19444;50.518;10.870;2023-03-20T17:19:20;10.23;;;5.97;;
32932;SDS011;19444;50.518;10.870;2023-03-20T17:25:20;8.23;;;4.57;;
32932;SDS011;19444;50.518;10.870;2023-03-20T17:28:19;8.68;;;5.43;;
32932;SDS011;19444;50.518;10.870;2023-03-20T17:31:19;6.80;;;3.60;;
32932;SDS011;19444;50.518;10.870;2023-03-20T17:34:16;8.65;;;4.45;;
32932;SDS011;19444;50.518;10.870;2023-03-20T17:37:14;8.13;;;4.60;;
32932;SDS011;19444;50.518;10.870;2023-03-20T17:40:19;6.53;;;4.03;;
32932;SDS011;19444;50.518;10.870;2023-03-20T17:43:18;8.70;;;5.22;;
32932;SDS011;19444;50.518;10.870;2023-03-20T17:46:19;6.68;;;3.72;;
32932;SDS011;19444;50.518;10.870;2023-03-20T17:49:19;6.63;;;4.50;;
32932;SDS011;19444;50.518;10.870;2023-03-20T17:52:25;7.32;;;4.57;;
32932;SDS011;19444;50.518;10.870;2023-03-20T17:55:24;6.15;;;3.38;;
32932;SDS011;19444;50.518;10.870;2023-03-20T17:58:21;6.85;;;4.60;;
32932;SDS011;19444;50.518;10.870;2023-03-20T18:01:18;7.07;;;4.43;;
32932;SDS011;19444;50.518;10.870;2023-03-20T18:04:15;8.00;;;4.75;;
32932;SDS011;19444;50.518;10.870;2023-03-20T18:07:15;7.90;;;4.40;;
32932;SDS011;19444;50.518;10.870;2023-03-20T18:10:22;7.68;;;4.53;;
32932;SDS011;19444;50.518;10.870;2023-03-20T18:13:26;7.80;;;4.95;;
32932;SDS011;19444;50.518;10.870;2023-03-20T18:16:25;8.60;;;5.22;;
32932;SDS011;19444;50.518;10.870;2023-03-20T18:19:23;6.40;;;4.30;;
32932;SDS011;19444;50.518;10.870;2023-03-20T18:22:24;6.88;;;3.72;;
32932;SDS011;19444;50.518;10.870;2023-03-20T18:25:21;7.53;;;4.18;;
32932;SDS011;19444;50.518;10.870;2023-03-20T18:28:21;7.95;;;4.88;;
32932;SDS011;19444;50.518;10.870;2023-03-20T18:31:18;5.25;;;3.50;;
32932;SDS011;19444;50.518;10.870;2023-03-20T18:34:16;7.93;;;4.95;;
32932;SDS011;19444;50.518;10.870;2023-03-20T18:37:13;8.07;;;4.68;;
32932;SDS011;19444;50.518;10.870;2023-03-20T18:40:15;10.90;;;5.80;;
32932;SDS011;19444;50.518;10.870;2023-03-20T18:43:22;10.40;;;6.70;;
32932;SDS011;19444;50.518;10.870;2023-03-20T18:46:19;14.38;;;8.82;;
32932;SDS011;19444;50.518;10.870;2023-03-20T18:49:18;12.30;;;8.10;;
32932;SDS011;19444;50.518;10.870;2023-03-20T18:52:16;12.10;;;7.05;;
32932;SDS011;19444;50.518;10.870;2023-03-20T18:55:13;8.95;;;5.43;;
32932;SDS011;19444;50.518;10.870;2023-03-20T18:58:14;11.60;;;6.90;;
32932;SDS011;19444;50.518;10.870;2023-03-20T19:01:24;8.63;;;5.78;;
32932;SDS011;19444;50.518;10.870;2023-03-20T19:04:22;11.45;;;6.28;;
32932;SDS011;19444;50.518;10.870;2023-03-20T19:07:19;8.75;;;6.70;;
32932;SDS011;19444;50.518;10.870;2023-03-20T19:10:26;10.63;;;7.07;;
32932;SDS011;19444;50.518;10.870;2023-03-20T19:13:29;12.20;;;7.65;;
32932;SDS011;19444;50.518;10.870;2023-03-20T19:16:27;13.38;;;9.63;;
32932;SDS011;19444;50.518;10.870;2023-03-20T19:19:30;8.43;;;5.35;;
32932;SDS011;19444;50.518;10.870;2023-03-20T19:22:27;6.32;;;3.92;;
32932;SDS011;19444;50.518;10.870;2023-03-20T19:25:25;6.28;;;4.32;;
32932;SDS011;19444;50.518;10.870;2023-03-20T19:28:26;8.57;;;4.72;;
32932;SDS011;19444;50.518;10.870;2023-03-20T19:31:36;7.82;;;4.95;;
32932;SDS011;19444;50.518;10.870;2023-03-20T19:34:33;6.57;;;4.30;;
32932;SDS011;19444;50.518;10.870;2023-03-20T19:37:50;6.70;;;3.97;;